Time;durP1;ratioP1;P1;durP2;ratioP2;P2;SDS_P1;SDS_P2;PMS_P1;PMS_P2;Temp;Humidity;BMP_temperature;BMP_pressure;BME280_temperature;BME280_humidity;BME280_pressure;Samples;Min_cycle;Max_cycle;Signal;HPM_P1;HPM_P2
2023/11/26 00:01:08;;;;;;;38.67;16.55;;;;;;;0.72;57.81;98310.94;6231384;23;20052;-89
2023/11/26 00:03:41;;;;;;;39.30;16.50;;;;;;;1.21;57.48;98365.94;6206848;23;20039;-91
2023/11/26 00:06:07;;;;;;;50.45;17.38;;;;;;;0.75;57.64;98298.81;6179524;23;20035;-88
2023/11/26 00:08:34;;;;;;;31.73;14.65;;;;;;;0.60;57.67;98265.53;6233925;23;20016;-88
2023/11/26 00:11:00;;;;;;;34.72;15.45;;;;;;;1.02;57.28;98336.94;6206203;23;20537;-88
2023/11/26 00:13:26;;;;;;;30.90;14.68;;;;;;;0.83;57.38;98311.69;6202159;23;20040;-89
2023/11/26 00:15:52;;;;;;;31.33;13.38;;;;;;;0.85;57.43;98315.72;6232952;23;20020;-89
2023/11/26 00:18:18;;;;;;;35.30;14.25;;;;;;;0.64;57.61;98266.59;6180520;23;20100;-90
2023/11/26 00:20:45;;;;;;;31.10;14.45;;;;;;;0.69;56.97;98271.13;6227697;23;20034;-88
2023/11/26 00:23:11;;;;;;;26.65;13.05;;;;;;;0.81;57.49;98305.81;6202466;23;20017;-88
2023/11/26 00:25:39;;;;;;;31.95;14.23;;;;;;;0.49;57.50;98257.75;6231161;23;20020;-87
2023/11/26 00:28:07;;;;;;;30.65;13.98;;;;;;;0.89;57.42;98316.81;6233800;23;20020;-89
2023/11/26 00:30:34;;;;;;;31.58;13.77;;;;;;;0.99;57.48;98326.72;6180495;23;20051;-90
2023/11/26 00:33:00;;;;;;;26.10;12.82;;;;;;;0.84;57.36;98283.75;6233518;23;20412;-91
2023/11/26 00:35:39;;;;;;;32.85;14.15;;;;;;;0.71;57.26;98274.38;6235528;22;20052;-89
2023/11/26 00:38:05;;;;;;;36.80;13.50;;;;;;;0.79;57.29;98299.88;6226907;23;20021;-90
2023/11/26 00:40:31;;;;;;;30.90;13.68;;;;;;;1.14;57.17;98344.72;6202954;23;20586;-88
2023/11/26 00:42:57;;;;;;;28.15;12.90;;;;;;;0.48;57.47;98248.88;6204531;23;20021;-88
2023/11/26 00:45:23;;;;;;;34.22;13.98;;;;;;;0.55;57.91;98292.41;6228045;23;20017;-90
2023/11/26 00:47:49;;;;;;;31.92;13.85;;;;;;;0.65;58.26;98327.34;6204053;23;20029;-89
2023/11/26 00:50:17;;;;;;;29.85;13.75;;;;;;;0.78;58.25;98322.50;6202133;23;20070;-88
2023/11/26 00:52:44;;;;;;;29.10;13.38;;;;;;;0.94;57.84;98324.84;6203005;23;20020;-90
2023/11/26 00:55:10;;;;;;;28.95;13.65;;;;;;;0.87;57.68;98296.66;6253185;23;20021;-89
2023/11/26 00:57:36;;;;;;;34.05;13.27;;;;;;;0.62;58.08;98278.69;6178256;23;20040;-89
2023/11/26 01:00:07;;;;;;;34.47;14.85;;;;;;;0.94;58.23;98327.56;6202053;23;20024;-88
2023/11/26 01:02:34;;;;;;;33.85;14.90;;;;;;;0.97;57.63;98311.94;6179191;23;20020;-92
2023/11/26 01:05:00;;;;;;;34.05;15.73;;;;;;;1.27;57.66;98351.38;6227398;23;20043;-88
2023/11/26 01:07:30;;;;;;;31.58;14.88;;;;;;;0.91;57.68;98295.81;6179168;23;20028;-89
2023/11/26 01:09:59;;;;;;;34.33;14.88;;;;;;;1.03;57.32;98308.97;6229442;23;20024;-88
2023/11/26 01:12:27;;;;;;;35.25;15.60;;;;;;;1.11;57.10;98334.50;6229733;23;20039;-89
2023/11/26 01:14:53;;;;;;;;;;;;;;;1.10;57.85;98365.19;6228506;23;20012;-89
2023/11/26 01:17:45;;;;;;;38.08;16.65;;;;;;;1.16;57.60;98378.34;6231136;23;20234;-89
2023/11/26 01:20:21;;;;;;;35.00;15.35;;;;;;;1.02;58.04;98369.22;6202521;23;20104;-91
2023/11/26 01:22:48;;;;;;;32.47;14.68;;;;;;;0.90;57.95;98355.28;6203022;23;20047;-89
2023/11/26 01:25:17;;;;;;;40.30;16.88;;;;;;;0.87;57.85;98353.13;6205640;23;20015;-89
2023/11/26 01:28:19;;;;;;;33.67;15.32;;;;;;;1.15;57.59;98386.69;6175369;23;20027;-94
2023/11/26 01:31:34;;;;;;;32.83;15.75;;;;;;;1.05;57.69;98387.53;6219445;22;20034;-89
2023/11/26 01:34:00;;;;;;;38.70;16.10;;;;;;;0.87;57.83;98342.38;6214493;22;20022;-89
2023/11/26 01:36:35;;;;;;;35.13;16.13;;;;;;;0.85;58.05;98328.38;6291738;22;20019;-87
2023/11/26 01:39:30;;;;;;;37.00;16.40;;;;;;;0.92;58.48;98385.41;6239740;22;20465;-89
2023/11/26 01:42:09;;;;;;;38.85;16.27;;;;;;;0.63;58.96;98348.34;6215044;22;20020;-90
2023/11/26 01:44:36;;;;;;;35.05;14.65;;;;;;;0.92;58.48;98364.69;6188367;22;20011;-89
2023/11/26 01:47:06;;;;;;;33.63;15.25;;;;;;;0.78;58.26;98338.63;6239317;22;20028;-89
2023/11/26 01:49:35;;;;;;;32.65;14.60;;;;;;;0.86;58.15;98329.97;6238891;22;20019;-88
2023/11/26 01:52:05;;;;;;;34.60;14.57;;;;;;;0.93;57.68;98352.84;6265277;22;20101;-89
2023/11/26 01:54:46;;;;;;;32.67;14.88;;;;;;;1.00;57.76;98338.31;6289441;22;20026;-89
2023/11/26 01:57:14;;;;;;;41.40;15.50;;;;;;;1.17;57.79;98366.50;6215631;22;20046;-89
2023/11/26 01:59:40;;;;;;;34.72;15.38;;;;;;;1.16;57.60;98361.41;6238721;22;20071;-89
2023/11/26 02:02:06;;;;;;;40.77;17.73;;;;;;;1.29;57.18;98378.81;6214460;22;20020;-90
2023/11/26 02:04:33;;;;;;;36.13;14.70;;;;;;;0.85;57.68;98337.25;6213671;22;20035;-90
2023/11/26 02:06:59;;;;;;;33.22;15.75;;;;;;;1.21;57.83;98385.59;6264918;22;20067;-89
2023/11/26 02:09:25;;;;;;;35.60;16.63;;;;;;;1.13;57.76;98373.50;6242001;22;20019;-90
2023/11/26 02:11:55;;;;;;;33.10;16.23;;;;;;;1.08;57.42;98365.44;6238810;22;20026;-93
2023/11/26 02:14:48;;;;;;;42.40;17.98;;;;;;;1.29;57.66;98398.50;6266874;22;20250;-94
2023/11/26 02:17:15;;;;;;;38.67;16.73;;;;;;;1.07;57.80;98365.72;6241995;22;20019;-89
2023/11/26 02:19:44;;;;;;;39.33;17.83;;;;;;;1.21;57.92;98392.88;6240038;22;20019;-90
2023/11/26 02:22:26;;;;;;;30.38;15.60;;;;;;;0.89;57.92;98361.72;6266855;22;20342;-89
2023/11/26 02:24:57;;;;;;;35.15;16.75;;;;;;;0.76;57.91;98338.09;6238707;22;20022;-89
2023/11/26 02:27:23;;;;;;;40.72;17.85;;;;;;;0.81;58.16;98354.22;6239743;22;20038;-89
2023/11/26 02:29:49;;;;;;;40.08;17.60;;;;;;;0.82;58.20;98334.31;6260746;22;20098;-91
2023/11/26 02:32:15;;;;;;;39.00;16.92;;;;;;;1.31;58.04;98401.69;6237430;22;20050;-90
2023/11/26 02:34:41;;;;;;;40.20;17.15;;;;;;;0.86;58.26;98329.97;6265415;22;20016;-89
2023/11/26 02:37:07;;;;;;;40.38;16.80;;;;;;;1.05;58.23;98376.75;6238741;22;20107;-91
2023/11/26 02:39:33;;;;;;;39.78;16.02;;;;;;;0.81;58.58;98343.47;6237839;22;20015;-89
2023/11/26 02:42:01;;;;;;;28.17;14.88;;;;;;;0.82;58.68;98345.06;6235003;22;20024;-92
2023/11/26 02:44:28;;;;;;;32.13;15.07;;;;;;;0.87;58.79;98348.56;6237874;22;20019;-90
2023/11/26 02:46:54;;;;;;;36.20;16.55;;;;;;;1.05;58.88;98392.91;6263274;22;20016;-88
2023/11/26 02:49:20;;;;;;;35.13;16.20;;;;;;;0.78;58.91;98355.56;6242604;22;20323;-89
2023/11/26 02:51:46;;;;;;;36.85;16.77;;;;;;;0.85;58.79;98366.84;6195932;23;20099;-89
2023/11/26 02:54:15;;;;;;;34.25;16.00;;;;;;;0.92;58.57;98377.31;6125203;23;20366;-92
2023/11/26 02:56:44;;;;;;;35.05;16.15;;;;;;;0.88;58.64;98357.44;6123152;23;20027;-90
2023/11/26 02:59:11;;;;;;;35.13;16.98;;;;;;;0.85;58.87;98344.53;6146531;23;20028;-92
2023/11/26 03:01:38;;;;;;;37.40;16.25;;;;;;;1.18;58.94;98391.53;6170014;23;20056;-89
2023/11/26 03:04:06;;;;;;;;;;;;;;;1.20;58.92;98402.81;6146231;23;20075;-88
2023/11/26 03:06:58;;;;;;;33.40;15.68;;;;;;;1.09;59.11;98410.13;6196492;23;19948;-89
2023/11/26 03:14:41;;;;;;;38.65;17.92;;;;;;;0.89;58.99;98381.38;6176167;23;20025;-91
2023/11/26 03:17:27;;;;;;;39.30;17.58;;;;;;;1.12;59.43;98419.53;6146147;23;20017;-89
2023/11/26 03:20:17;;;;;;;38.83;16.92;;;;;;;0.92;59.45;98398.84;5998928;23;20023;-90
2023/11/26 03:22:55;;;;;;;38.97;16.67;;;;;;;0.37;59.32;98314.50;5976960;23;20486;-92
2023/11/26 03:25:21;;;;;;;36.25;16.50;;;;;;;0.61;59.47;98355.88;6177170;23;20025;-90
2023/11/26 03:27:47;;;;;;;35.38;15.55;;;;;;;0.58;59.75;98366.38;6153090;23;20020;-92
2023/11/26 03:30:18;;;;;;;35.35;15.30;;;;;;;0.65;59.93;98362.31;6174473;23;20029;-92
2023/11/26 03:32:50;;;;;;;39.67;16.52;;;;;;;0.93;59.88;98398.59;6148665;23;20049;-94
2023/11/26 03:35:20;;;;;;;41.28;16.00;;;;;;;0.64;59.50;98335.72;6175741;23;19999;-92
2023/11/26 03:37:46;;;;;;;39.33;15.90;;;;;;;0.82;59.58;98375.47;6173615;23;20029;-90
2023/11/26 03:40:28;;;;;;;34.45;14.88;;;;;;;0.93;59.55;98409.34;6296492;22;20456;-89
2023/11/26 03:43:19;;;;;;;37.92;15.70;;;;;;;0.74;59.26;98361.78;6272688;22;20003;-89
2023/11/26 03:46:11;;;;;;;32.42;13.85;;;;;;;0.93;59.60;98393.22;6243512;22;20024;-91
2023/11/26 03:48:38;;;;;;;36.17;14.77;;;;;;;0.34;59.74;98315.84;6252755;22;20008;-89
2023/11/26 03:51:04;;;;;;;;;;;;;;;0.82;59.87;98399.66;6241366;23;20023;-91
2023/11/26 03:53:33;;;;;;;33.75;14.88;;;;;;;0.31;60.21;98339.78;6218310;23;19926;-89
2023/11/26 03:55:59;;;;;;;38.90;14.27;;;;;;;0.36;60.78;98362.06;6219790;23;20035;-89
2023/11/26 03:58:31;;;;;;;45.70;16.02;;;;;;;0.45;60.51;98387.34;6269192;22;20023;-88
2023/11/26 04:01:00;;;;;;;39.03;15.07;;;;;;;0.03;60.74;98330.38;6218334;22;20008;-89
2023/11/26 04:03:26;;;;;;;34.17;14.75;;;;;;;0.40;61.09;98391.94;6192944;23;20095;-91
2023/11/26 04:06:01;;;;;;;36.25;15.10;;;;;;;-0.11;60.92;98322.03;6193557;23;20027;-89
2023/11/26 04:08:32;;;;;;;37.88;14.43;;;;;;;0.18;61.38;98378.75;6193449;23;20016;-90
2023/11/26 04:11:00;;;;;;;34.63;15.38;;;;;;;-0.07;61.68;98369.56;6195401;23;20072;-88
2023/11/26 04:13:27;;;;;;;35.43;14.43;;;;;;;-0.17;61.65;98340.00;6270989;22;20530;-89
2023/11/26 04:15:58;;;;;;;38.55;14.98;;;;;;;-0.11;62.00;98370.38;6242690;23;20067;-90
2023/11/26 04:18:47;;;;;;;26.95;12.80;;;;;;;0.13;61.54;98386.78;6217716;23;20199;-88
2023/11/26 04:21:27;;;;;;;30.02;13.35;;;;;;;0.21;61.35;98379.00;6267778;22;20012;-89
2023/11/26 04:23:54;;;;;;;30.67;13.27;;;;;;;0.04;61.21;98372.28;6221799;22;20346;-89
2023/11/26 04:26:23;;;;;;;34.15;13.82;;;;;;;0.11;61.02;98384.38;6195884;22;20026;-88
2023/11/26 04:28:56;;;;;;;32.83;13.57;;;;;;;0.31;61.04;98418.53;6270965;22;20101;-90
2023/11/26 04:34:43;;;;;;;27.35;11.50;;;;;;;0.42;60.80;98430.09;6236300;23;20024;-88
2023/11/26 04:37:31;;;;;;;27.80;12.63;;;;;;;0.14;60.51;98362.34;6244009;22;20016;-89
2023/11/26 04:40:26;;;;;;;31.23;12.93;;;;;;;0.25;60.52;98371.22;6241993;22;20000;-91
2023/11/26 04:43:52;;;;;;;27.85;12.60;;;;;;;0.36;61.02;98423.91;6245117;23;20015;-89
2023/11/26 04:46:23;;;;;;;27.15;12.40;;;;;;;0.14;60.21;98356.97;6244076;23;20484;-88
2023/11/26 04:51:54;;;;;;;34.35;13.30;;;;;;;0.17;60.34;98364.50;6253501;22;20028;-87
2023/11/26 04:54:49;;;;;;;27.17;12.00;;;;;;;0.50;60.33;98412.59;6244538;22;20027;-87
2023/11/26 04:57:24;;;;;;;32.30;13.25;;;;;;;-0.14;60.59;98326.06;6242429;23;20146;-88
2023/11/26 04:59:52;;;;;;;29.23;12.23;;;;;;;0.41;60.92;98415.84;6238892;23;20059;-88
2023/11/26 05:02:18;;;;;;;29.48;13.07;;;;;;;-0.01;60.69;98348.91;6169130;22;20024;-89
2023/11/26 05:05:03;;;;;;;32.15;14.13;;;;;;;0.16;60.58;98357.50;6216372;22;20026;-88
2023/11/26 05:07:39;;;;;;;29.80;11.73;;;;;;;0.54;60.62;98417.19;6219933;23;20008;-89
2023/11/26 05:10:28;;;;;;;25.17;11.82;;;;;;;0.29;60.08;98379.56;6246961;23;20027;-88
2023/11/26 05:12:55;;;;;;;28.70;12.23;;;;;;;0.03;60.19;98336.53;6217325;23;20012;-88
2023/11/26 05:15:21;;;;;;;28.10;12.15;;;;;;;0.12;60.47;98356.44;6241240;23;20064;-89
2023/11/26 05:17:49;;;;;;;30.42;13.25;;;;;;;0.10;60.31;98323.66;6191010;22;20076;-89
2023/11/26 05:20:16;;;;;;;28.13;12.65;;;;;;;0.16;60.45;98354.81;6217177;23;20016;-89
2023/11/26 05:22:43;;;;;;;34.83;13.10;;;;;;;0.18;60.55;98368.81;6194733;23;20031;-90
2023/11/26 05:25:14;;;;;;;26.42;12.90;;;;;;;0.52;60.40;98402.41;6244455;23;20016;-90
2023/11/26 05:27:41;;;;;;;31.05;13.68;;;;;;;0.36;60.57;98370.13;6218656;22;20109;-90
2023/11/26 05:30:31;;;;;;;19.83;10.68;;;;;;;0.42;60.33;98382.50;6215596;22;20008;-89
2023/11/26 05:32:57;;;;;;;;;;;;;;;0.58;60.21;98386.00;6227227;22;20011;-90
2023/11/26 05:35:27;;;;;;;32.05;13.02;;;;;;;0.16;59.92;98319.06;6198554;22;19919;-89
2023/11/26 05:37:55;;;;;;;28.02;13.00;;;;;;;0.53;60.25;98383.31;6271448;22;19999;-90
2023/11/26 05:40:22;;;;;;;26.90;12.27;;;;;;;0.22;60.35;98350.25;6245910;22;20373;-90
2023/11/26 05:42:52;;;;;;;26.77;11.98;;;;;;;0.13;60.22;98311.56;6297819;22;20042;-90
2023/11/26 05:45:20;;;;;;;30.77;13.13;;;;;;;0.40;60.28;98352.41;6185445;23;20004;-90
2023/11/26 05:47:47;;;;;;;28.15;13.00;;;;;;;0.64;59.68;98378.75;6185408;23;20004;-93
2023/11/26 05:50:17;;;;;;;29.38;12.85;;;;;;;0.55;59.83;98383.84;6165563;23;20031;-89
2023/11/26 05:52:45;;;;;;;28.60;13.23;;;;;;;0.54;59.55;98387.63;6213499;22;20003;-90
2023/11/26 05:55:16;;;;;;;29.67;13.23;;;;;;;0.21;60.03;98365.56;6241301;23;20023;-92
2023/11/26 05:58:05;;;;;;;31.42;14.05;;;;;;;0.36;59.90;98385.47;6270020;22;20030;-90
2023/11/26 06:58:08;;;;;;;49.95;18.15;;;;;;;-0.12;61.15;98360.72;6291237;22;20446;-90
2023/11/26 07:00:45;;;;;;;34.03;16.70;;;;;;;-0.61;61.72;98302.88;6246197;22;20020;-87
2023/11/26 07:03:17;;;;;;;56.55;17.67;;;;;;;-0.38;62.80;98347.25;6247960;22;20034;-89
2023/11/26 07:06:13;;;;;;;43.60;18.25;;;;;;;-0.08;62.08;98394.03;6219222;22;20022;-87
2023/11/26 07:09:03;;;;;;;46.10;16.80;;;;;;;-0.33;61.86;98366.06;6250850;22;20015;-87
2023/11/26 07:14:43;;;;;;;45.30;17.03;;;;;;;-0.13;62.92;98400.22;6295688;22;20028;-89
2023/11/26 07:17:27;;;;;;;38.33;17.25;;;;;;;-0.34;61.94;98340.25;6273709;22;20011;-91
2023/11/26 07:23:59;;;;;;;62.35;17.67;;;;;;;-0.96;62.82;98279.44;6268034;22;20020;-87
2023/11/26 07:26:28;;;;;;;39.75;18.00;;;;;;;-0.21;63.18;98402.59;6266510;22;20020;-90
2023/11/26 07:28:56;;;;;;;51.97;17.70;;;;;;;-0.67;63.43;98359.50;6221621;22;20020;-87
2023/11/26 07:31:38;;;;;;;42.53;18.02;;;;;;;-0.50;63.56;98395.81;6242247;22;20030;-86
2023/11/26 07:34:32;;;;;;;37.65;15.18;;;;;;;-0.30;63.53;98403.13;6242493;22;20050;-88
2023/11/26 07:36:59;;;;;;;41.72;17.58;;;;;;;-0.52;63.46;98375.66;6243319;22;20030;-90
2023/11/26 07:39:55;;;;;;;43.35;18.45;;;;;;;-0.71;64.05;98364.59;6270517;22;20019;-87
2023/11/26 07:42:28;;;;;;;46.08;18.33;;;;;;;-0.84;64.06;98349.78;6254698;22;20034;-90
2023/11/26 07:45:47;;;;;;;46.85;19.77;;;;;;;-0.53;64.20;98404.38;6227011;22;20007;-92
2023/11/26 07:49:23;;;;;;;50.05;15.52;;;;;;;-1.23;64.52;98312.56;6300769;22;20173;-89
2023/11/26 07:51:53;;;;;;;41.47;17.02;;;;;;;-0.54;64.65;98404.63;6275386;22;20051;-91
2023/11/26 07:54:51;;;;;;;40.70;17.27;;;;;;;-0.54;64.11;98370.53;6223283;22;20023;-88
2023/11/26 07:57:17;;;;;;;52.60;17.43;;;;;;;-0.19;63.72;98416.56;6270337;22;20091;-88
2023/11/26 07:59:44;;;;;;;35.88;14.07;;;;;;;-0.54;63.71;98372.44;6249045;22;20046;-88
2023/11/26 08:02:13;;;;;;;44.80;16.00;;;;;;;-0.56;64.42;98369.22;6267993;22;20054;-89
2023/11/26 08:04:48;;;;;;;34.53;14.80;;;;;;;-1.39;64.57;98281.44;6294506;22;20015;-91
2023/11/26 08:07:35;;;;;;;31.42;14.93;;;;;;;-1.28;64.58;98295.69;6251044;22;20075;-90
2023/11/26 08:10:09;;;;;;;39.22;16.60;;;;;;;-0.61;64.95;98358.44;6245020;22;20036;-88
2023/11/26 08:13:07;;;;;;;38.65;15.02;;;;;;;-0.68;64.32;98364.06;6234052;22;20096;-86
2023/11/26 08:19:46;;;;;;;31.27;14.63;;;;;;;-0.60;64.92;98398.44;6287588;22;20016;-87
2023/11/26 08:23:06;;;;;;;35.08;14.80;;;;;;;-0.59;64.92;98399.25;6270855;22;20035;-88
2023/11/26 08:25:44;;;;;;;35.95;15.38;;;;;;;-0.65;64.83;98401.13;6271037;22;20481;-86
2023/11/26 08:28:13;;;;;;;39.20;15.35;;;;;;;-0.67;64.62;98407.81;6271112;22;20119;-90
2023/11/26 08:30:49;;;;;;;34.63;15.18;;;;;;;-0.98;64.91;98362.88;6249552;22;20031;-88
2023/11/26 08:33:30;;;;;;;40.33;16.27;;;;;;;-1.19;64.83;98319.06;6249395;22;20043;-89
2023/11/26 08:36:02;;;;;;;39.60;16.42;;;;;;;-1.12;65.29;98350.19;6246039;22;20011;-87
2023/11/26 08:38:31;;;;;;;41.67;16.77;;;;;;;-1.31;65.31;98314.97;6219650;22;20034;-88
2023/11/26 08:44:38;;;;;;;35.67;15.10;;;;;;;-0.88;65.96;98390.81;6236100;23;20025;-85
2023/11/26 08:47:11;;;;;;;38.38;15.77;;;;;;;-1.05;65.59;98340.03;6213674;23;20016;-88
2023/11/26 08:49:51;;;;;;;35.50;16.05;;;;;;;-1.01;65.27;98325.03;6194420;23;20074;-87
2023/11/26 08:52:28;;;;;;;42.75;16.77;;;;;;;-1.02;65.35;98308.13;6216684;23;20020;-87
2023/11/26 08:54:56;;;;;;;;;;;;;;;-0.53;65.18;98368.66;6216994;23;20016;-85
2023/11/26 08:57:24;;;;;;;25.65;11.18;;;;;;;-1.33;65.29;98272.31;6237927;23;19899;-87
2023/11/26 08:59:50;;;;;;;33.70;15.43;;;;;;;-0.62;65.35;98354.16;6265098;23;20023;-87
2023/11/26 09:02:27;;;;;;;41.30;16.38;;;;;;;-0.80;64.61;98280.28;6220587;23;20060;-85
2023/11/26 09:05:12;;;;;;;42.75;16.65;;;;;;;-0.22;64.31;98366.88;6216189;23;20015;-87
2023/11/26 09:07:45;;;;;;;45.28;16.10;;;;;;;-0.19;64.30;98363.66;6245215;23;20009;-87
2023/11/26 09:10:19;;;;;;;45.72;15.48;;;;;;;-0.36;64.00;98353.16;6244107;23;20024;-88
2023/11/26 09:16:10;;;;;;;42.85;16.02;;;;;;;-0.74;64.66;98304.19;6177929;23;20000;-88
2023/11/26 09:18:38;;;;;;;41.83;16.80;;;;;;;-0.67;64.60;98313.88;6269892;23;19996;-86
2023/11/26 09:21:10;;;;;;;49.45;18.00;;;;;;;-0.69;64.65;98300.75;6192992;23;20024;-88
2023/11/26 09:23:42;;;;;;;49.75;18.92;;;;;;;-1.00;65.48;98289.09;6213046;23;20028;-87
2023/11/26 09:26:13;;;;;;;42.55;18.90;;;;;;;-0.75;65.82;98289.19;6186300;22;20027;-87
2023/11/26 09:28:42;;;;;;;25.13;11.57;;;;;;;-0.34;64.11;98317.97;6217028;23;20087;-87
2023/11/26 09:31:14;;;;;;;42.65;17.90;;;;;;;-0.36;63.87;98290.59;6245265;23;20023;-89
2023/11/26 09:33:43;;;;;;;44.67;19.48;;;;;;;-0.40;64.63;98319.03;6243547;23;20044;-87
2023/11/26 09:36:20;;;;;;;39.65;16.75;;;;;;;-0.06;64.04;98348.91;6243460;23;20019;-87
2023/11/26 09:39:15;;;;;;;48.97;19.33;;;;;;;-0.08;63.87;98319.63;6222109;23;20027;-88
2023/11/26 09:41:43;;;;;;;46.63;18.73;;;;;;;-0.19;63.53;98277.72;6239915;22;20074;-86
2023/11/26 09:44:57;;;;;;;45.60;19.75;;;;;;;0.09;63.20;98326.59;6218436;23;20045;-86
2023/11/26 09:56:11;;;;;;;44.00;19.15;;;;;;;0.45;62.88;98322.03;6241194;22;20004;-84
2023/11/26 09:58:40;;;;;;;47.40;20.52;;;;;;;0.25;62.33;98319.34;6173076;23;20008;-85
2023/11/26 10:01:12;;;;;;;59.70;20.70;;;;;;;-0.05;62.54;98296.78;6240314;23;20035;-87
2023/11/26 10:06:42;;;;;;;43.83;18.85;;;;;;;-0.47;63.40;98276.34;6256372;22;20012;-85
2023/11/26 10:09:30;;;;;;;45.42;17.00;;;;;;;-0.26;63.60;98338.94;6196301;23;20016;-90
2023/11/26 10:12:09;;;;;;;54.03;20.90;;;;;;;-0.81;64.39;98249.97;6224730;22;20024;-90
2023/11/26 10:18:24;;;;;;;86.03;21.85;;;;;;;-0.15;64.63;98323.66;6303310;22;20023;-89
2023/11/26 10:22:06;;;;;;;45.70;19.48;;;;;;;-0.38;64.76;98285.50;6181352;23;20065;-87
2023/11/26 10:40:02;;;;;;;48.58;19.40;;;;;;;-0.02;62.34;98274.75;6220772;22;20077;-89
2023/11/26 11:40:30;;;;;;;43.72;17.38;;;;;;;-0.84;65.05;98153.94;6237804;22;20035;-90
2023/11/26 11:43:19;;;;;;;47.78;17.48;;;;;;;-0.16;65.06;98238.78;6247760;23;20072;-93
2023/11/26 11:46:34;;;;;;;43.20;16.98;;;;;;;-0.19;64.40;98236.63;6244841;23;20000;-90
2023/11/26 11:49:32;;;;;;;37.75;16.33;;;;;;;-0.58;64.48;98192.31;6196355;23;20023;-91
2023/11/26 11:52:22;;;;;;;37.80;16.05;;;;;;;-0.72;64.62;98146.44;6205584;23;20092;-90
2023/11/26 12:19:48;;;;;;;40.92;17.23;;;;;;;-0.55;64.94;98166.84;6242372;22;20017;-86
2023/11/26 12:26:37;;;;;;;41.83;15.90;;;;;;;-0.96;66.26;98151.53;6056342;23;20019;-90
2023/11/26 12:44:37;;;;;;;39.50;16.33;;;;;;;-1.32;66.13;98064.88;6187058;23;20159;-90
2023/11/26 12:47:50;;;;;;;40.80;16.83;;;;;;;-0.41;66.23;98208.16;6166898;23;20017;-89
2023/11/26 12:50:20;;;;;;;54.00;15.45;;;;;;;-0.40;66.16;98207.06;6190369;23;20006;-91
2023/11/26 12:53:00;;;;;;;41.35;16.35;;;;;;;-0.67;66.21;98182.38;6166559;23;20020;-89
2023/11/26 12:55:29;;;;;;;36.08;15.07;;;;;;;-1.19;66.64;98117.16;6141193;23;20016;-92
2023/11/26 13:15:56;;;;;;;36.63;17.23;;;;;;;-0.82;68.32;98173.25;6262282;22;20028;-89
2023/11/26 13:18:40;;;;;;;46.05;16.92;;;;;;;-1.04;68.55;98132.47;6212942;23;20019;-87
2023/11/26 13:21:28;;;;;;;38.38;15.32;;;;;;;-1.27;68.73;98097.03;6208959;23;20115;-89
2023/11/26 13:24:03;;;;;;;26.05;13.45;;;;;;;-0.86;68.79;98176.72;6143440;23;20017;-88
2023/11/26 13:26:50;;;;;;;28.27;14.82;;;;;;;-1.15;69.09;98141.56;6123078;23;20078;-90
2023/11/26 13:29:22;;;;;;;29.90;13.55;;;;;;;-1.44;69.77;98069.66;6036101;23;20026;-89
2023/11/26 13:31:50;;;;;;;45.00;15.43;;;;;;;-1.30;70.01;98081.47;6082485;23;20018;-89
2023/11/26 13:34:33;;;;;;;42.13;17.00;;;;;;;-1.20;69.52;98104.81;6056921;23;20065;-92
2023/11/26 13:37:00;;;;;;;27.83;12.68;;;;;;;-0.90;68.73;98154.19;6085406;23;20014;-92
2023/11/26 13:40:01;;;;;;;42.88;14.27;;;;;;;-0.64;69.65;98181.84;6065183;23;20029;-90
2023/11/26 13:42:43;;;;;;;25.92;11.88;;;;;;;-1.23;69.15;98118.75;6067954;23;20053;-92
2023/11/26 13:46:14;;;;;;;21.10;9.35;;;;;;;-1.63;70.00;98089.97;6007575;23;20083;-89
2023/11/26 13:48:53;;;;;;;20.65;10.45;;;;;;;-1.53;71.08;98106.88;6028422;23;20071;-90
2023/11/26 13:51:28;;;;;;;29.42;11.88;;;;;;;-1.78;70.81;98072.78;5927303;24;20039;-91
2023/11/26 14:06:51;;;;;;;32.75;12.20;;;;;;;-1.74;72.34;98135.50;6292530;22;20042;-90
2023/11/26 14:09:24;;;;;;;32.20;13.38;;;;;;;-1.62;72.63;98156.72;6275662;22;20050;-90
2023/11/26 14:12:18;;;;;;;32.38;12.75;;;;;;;-2.18;72.18;98052.84;6222124;22;20008;-92
2023/11/26 14:14:49;;;;;;;24.15;11.45;;;;;;;-1.74;71.96;98107.91;6064440;23;20032;-91
2023/11/26 14:17:59;;;;;;;31.27;12.10;;;;;;;-1.86;71.69;98092.03;6079795;23;20038;-89
2023/11/26 14:21:12;;;;;;;35.58;13.43;;;;;;;-1.60;72.06;98143.03;6089812;23;20042;-88
2023/11/26 14:23:51;;;;;;;19.25;9.13;;;;;;;-2.20;72.42;98092.44;6194936;22;20024;-91
2023/11/26 14:26:25;;;;;;;23.77;10.88;;;;;;;-1.94;72.64;98109.41;6215000;22;20059;-89
2023/11/26 14:32:02;;;;;;;27.40;10.23;;;;;;;-1.79;72.36;98167.59;6195330;22;20082;-91
2023/11/26 14:34:32;;;;;;;22.30;8.82;;;;;;;-2.18;72.47;98073.44;6219070;22;20242;-88
2023/11/26 14:37:06;;;;;;;25.67;10.20;;;;;;;-2.01;72.74;98100.03;6239471;22;20010;-90
2023/11/26 14:40:09;;;;;;;40.25;12.05;;;;;;;-2.09;72.70;98101.31;6215389;22;20023;-88
2023/11/26 14:43:18;;;;;;;22.90;10.57;;;;;;;-1.85;73.23;98133.84;6148192;23;20031;-90
2023/11/26 14:45:47;;;;;;;25.40;10.38;;;;;;;-2.64;73.07;98015.13;6165195;23;20016;-93
2023/11/26 14:48:17;;;;;;;27.00;12.20;;;;;;;-1.93;73.58;98127.09;6203062;23;20020;-88
2023/11/26 14:50:57;;;;;;;30.27;11.43;;;;;;;-2.29;73.56;98074.44;6154791;23;20025;-89
2023/11/26 14:53:50;;;;;;;26.52;10.48;;;;;;;-1.88;73.65;98134.38;6201910;23;20012;-86
2023/11/26 14:56:19;;;;;;;22.17;10.93;;;;;;;-2.25;73.84;98076.34;6171532;23;20055;-88
2023/11/26 14:59:11;;;;;;;34.60;13.10;;;;;;;-2.30;74.08;98070.16;6199810;23;20017;-87
2023/11/26 15:01:46;;;;;;;22.08;9.73;;;;;;;-1.93;74.07;98118.25;6206165;23;20016;-89
2023/11/26 15:07:59;;;;;;;29.15;11.45;;;;;;;-2.54;74.16;98032.31;6099256;23;20006;-88
2023/11/26 15:10:31;;;;;;;21.00;9.05;;;;;;;-2.29;74.07;98059.19;6075928;23;20018;-90
2023/11/26 15:13:30;;;;;;;20.70;9.35;;;;;;;-2.08;74.14;98102.13;6121419;23;20036;-89
2023/11/26 15:16:21;;;;;;;26.73;11.90;;;;;;;-1.99;74.22;98106.72;6142277;23;20026;-89
2023/11/26 15:18:51;;;;;;;27.83;11.27;;;;;;;-2.19;73.88;98086.00;6090190;23;20022;-90
2023/11/26 15:21:28;;;;;;;25.85;11.95;;;;;;;-2.12;74.04;98093.78;6098184;23;20053;-87
2023/11/26 15:24:07;;;;;;;22.95;11.40;;;;;;;-2.24;74.19;98082.50;6115376;23;20029;-90
2023/11/26 15:26:36;;;;;;;29.45;12.38;;;;;;;-2.81;73.92;97978.91;6118057;23;20008;-87
2023/11/26 15:29:16;;;;;;;27.52;12.18;;;;;;;-2.15;73.99;98084.44;6120295;23;20014;-91
2023/11/26 15:34:57;;;;;;;25.08;10.25;;;;;;;-2.10;73.96;98104.25;6296110;22;20027;-92
2023/11/26 15:37:30;;;;;;;26.92;10.38;;;;;;;-2.74;74.34;98009.72;6251579;22;20004;-91
2023/11/26 15:40:09;;;;;;;22.75;10.20;;;;;;;-2.21;74.43;98096.19;6275555;22;20105;-90
2023/11/26 15:43:22;;;;;;;22.88;11.25;;;;;;;-3.05;74.45;97973.16;6286414;22;20023;-89
2023/11/26 15:46:31;;;;;;;24.33;9.27;;;;;;;-2.61;74.54;98048.59;6208949;22;20067;-87
2023/11/26 15:49:37;;;;;;;20.33;8.55;;;;;;;-2.28;74.40;98092.94;6275357;22;20034;-90
2023/11/26 15:52:41;;;;;;;22.02;10.13;;;;;;;-2.21;74.42;98098.84;6222134;22;20030;-92
2023/11/26 15:55:34;;;;;;;20.88;10.15;;;;;;;-2.24;74.29;98115.44;6215257;23;20000;-92
2023/11/26 15:58:11;;;;;;;21.20;10.15;;;;;;;-2.42;74.35;98056.97;6191996;23;20004;-89
2023/11/26 16:03:40;;;;;;;21.33;9.98;;;;;;;-2.21;73.84;98096.19;6225667;22;20032;-90
2023/11/26 16:06:12;;;;;;;23.80;9.35;;;;;;;-2.36;73.97;98072.00;6213879;23;20040;-89
2023/11/26 16:08:47;;;;;;;24.80;9.05;;;;;;;-2.58;74.16;98045.41;6184922;23;20020;-90
2023/11/26 16:11:21;;;;;;;21.83;9.88;;;;;;;-2.42;74.16;98070.34;6204904;23;19997;-90
2023/11/26 16:16:28;;;;;;;24.08;10.55;;;;;;;-2.40;74.15;98082.41;6177573;23;20041;-91
2023/11/26 16:19:27;;;;;;;23.92;10.50;;;;;;;-2.29;74.10;98088.63;6158737;23;20005;-91
2023/11/26 16:27:35;;;;;;;16.90;8.23;;;;;;;-2.81;74.17;98025.19;6287856;22;20020;-91
2023/11/26 16:30:04;;;;;;;;;;;;;;;-2.38;74.52;98095.56;6239494;22;20023;-88
2023/11/26 16:32:31;;;;;;;22.42;9.00;;;;;;;-2.49;74.83;98075.13;6240485;22;19919;-90
2023/11/26 16:35:04;;;;;;;26.30;8.95;;;;;;;-2.83;74.42;98038.00;6269717;22;20015;-91
2023/11/26 16:37:32;;;;;;;19.17;9.20;;;;;;;-2.80;74.62;98058.91;6266509;22;20014;-90
2023/11/26 16:40:26;;;;;;;16.83;8.05;;;;;;;-2.39;74.71;98107.31;6223157;22;20020;-90